createdAt,value
2022-11-03T00:14:33.318Z,984.6
2022-11-03T00:29:09.090Z,984.4
2022-11-03T00:43:45.889Z,984.4
2022-11-03T00:58:23.022Z,984.3
2022-11-03T01:13:01.740Z,984.2
2022-11-03T01:27:37.936Z,983.9
2022-11-03T01:42:15.826Z,983.8
2022-11-03T01:56:52.623Z,983.7
2022-11-03T02:11:31.893Z,983.4
2022-11-03T02:26:09.591Z,983.3
2022-11-03T02:40:48.093Z,983.1
2022-11-03T02:55:24.751Z,982.8
2022-11-03T03:10:00.242Z,982.7
2022-11-03T03:24:36.812Z,982.5
2022-11-03T03:39:13.640Z,982.3
2022-11-03T03:53:51.421Z,982.1
2022-11-03T04:08:28.176Z,982
2022-11-03T04:23:04.976Z,982
2022-11-03T04:37:48.580Z,982
2022-11-03T04:52:27.974Z,981.8
2022-11-03T05:07:08.249Z,981.5
2022-11-03T05:21:42.415Z,981.4
2022-11-03T05:36:20.297Z,981.3
2022-11-03T05:50:59.181Z,981.1
2022-11-03T06:05:35.792Z,980.9
2022-11-03T06:20:13.778Z,980.7
2022-11-03T06:34:52.623Z,980.6
2022-11-03T06:49:32.405Z,980.4
2022-11-03T07:04:09.786Z,980.3
2022-11-03T07:18:47.824Z,980.2
2022-11-03T07:33:25.343Z,979.6
2022-11-03T07:47:53.099Z,979.7
2022-11-03T08:02:31.516Z,979.6
2022-11-03T08:17:10.749Z,979.3
2022-11-03T08:31:50.573Z,979
2022-11-03T08:46:29.708Z,979
2022-11-03T09:01:12.397Z,978.9
2022-11-03T09:15:53.700Z,978.8
2022-11-03T09:30:32.697Z,978.5
2022-11-03T09:45:06.905Z,978.3
2022-11-03T09:59:45.385Z,978
2022-11-03T10:14:23.064Z,977.7
2022-11-03T10:29:07.194Z,977.1
2022-11-03T10:43:41.276Z,976.9
2022-11-03T10:58:24.673Z,976.8
2022-11-03T11:13:06.058Z,976.2
2022-11-03T11:27:47.100Z,975.9
2022-11-03T11:42:22.179Z,975.6
2022-11-03T11:57:00.807Z,975.7
2022-11-03T12:11:37.764Z,975.6
2022-11-03T12:26:14.437Z,975.1
2022-11-03T12:40:51.356Z,974.8
2022-11-03T12:55:29.286Z,974.4
2022-11-03T13:10:06.933Z,974
2022-11-03T13:24:44.438Z,973.7
2022-11-03T13:39:22.369Z,973.3
2022-11-03T14:09:59.359Z,972.6
2022-11-03T14:24:36.169Z,972.5
2022-11-03T14:39:14.050Z,972.2
2022-11-03T14:53:51.929Z,971.9
2022-11-03T15:08:36.039Z,971.7
2022-11-03T15:39:25.532Z,971.6
2022-11-03T15:54:12.607Z,971.4
2022-11-03T16:08:48.160Z,971.1
2022-11-03T16:23:24.084Z,970.9
2022-11-03T16:38:01.205Z,970.5
2022-11-03T16:52:39.110Z,970.4
2022-11-03T17:07:17.898Z,970.3
2022-11-03T17:21:56.460Z,970.2
2022-11-03T17:36:35.579Z,970
2022-11-03T17:51:27.865Z,969.6
2022-11-03T18:06:00.711Z,969.4
2022-11-03T18:20:53.944Z,969.1
2022-11-03T18:35:25.011Z,968.8
2022-11-03T18:50:03.530Z,968.6
2022-11-03T19:04:41.736Z,968.5
2022-11-03T19:19:19.685Z,968.4
2022-11-03T19:33:57.859Z,968.2
2022-11-03T19:48:36.554Z,968
2022-11-03T20:03:14.883Z,967.9
2022-11-03T20:17:53.561Z,967.7
2022-11-03T20:32:32.687Z,967.8
2022-11-03T20:47:12.254Z,967.9
2022-11-03T21:01:55.605Z,968.1
2022-11-03T21:16:31.957Z,967.9
2022-11-03T21:31:11.274Z,967.9
2022-11-03T21:45:50.496Z,968
2022-11-03T22:00:30.090Z,968.1
2022-11-03T22:15:08.491Z,968.2
2022-11-03T22:29:53.535Z,968.4
